sensor_id;sensor_type;location;lat;lon;timestamp;pressure;altitude;pressure_sealevel;temperature
20848;BMP180;10584;50.854;12.902;2024-03-22T00:02:51;98675.00;;;8.20
20848;BMP180;10584;50.854;12.902;2024-03-22T00:08:12;98675.00;;;8.20
20848;BMP180;10584;50.854;12.902;2024-03-22T00:13:33;98665.00;;;8.20
20848;BMP180;10584;50.854;12.902;2024-03-22T00:18:53;98667.00;;;8.10
20848;BMP180;10584;50.854;12.902;2024-03-22T00:24:14;98663.00;;;7.90
20848;BMP180;10584;50.854;12.902;2024-03-22T00:29:35;98641.00;;;7.70
20848;BMP180;10584;50.854;12.902;2024-03-22T00:34:56;98632.00;;;7.50
20848;BMP180;10584;50.854;12.902;2024-03-22T00:40:16;98629.00;;;7.30
20848;BMP180;10584;50.854;12.902;2024-03-22T00:45:38;98627.00;;;7.10
20848;BMP180;10584;50.854;12.902;2024-03-22T00:50:59;98638.00;;;7.00
20848;BMP180;10584;50.854;12.902;2024-03-22T00:56:19;98648.00;;;6.80
20848;BMP180;10584;50.854;12.902;2024-03-22T01:01:40;98645.00;;;6.60
20848;BMP180;10584;50.854;12.902;2024-03-22T01:07:01;98639.00;;;6.40
20848;BMP180;10584;50.854;12.902;2024-03-22T01:12:22;98628.00;;;6.20
20848;BMP180;10584;50.854;12.902;2024-03-22T01:17:43;98622.00;;;6.00
20848;BMP180;10584;50.854;12.902;2024-03-22T01:23:04;98607.00;;;5.80
20848;BMP180;10584;50.854;12.902;2024-03-22T01:28:24;98606.00;;;5.70
20848;BMP180;10584;50.854;12.902;2024-03-22T01:33:45;98600.00;;;5.60
20848;BMP180;10584;50.854;12.902;2024-03-22T01:39:06;98592.00;;;5.50
20848;BMP180;10584;50.854;12.902;2024-03-22T01:44:32;98583.00;;;5.40
20848;BMP180;10584;50.854;12.902;2024-03-22T01:49:54;98580.00;;;5.40
20848;BMP180;10584;50.854;12.902;2024-03-22T01:55:16;98577.00;;;5.40
20848;BMP180;10584;50.854;12.902;2024-03-22T02:00:41;98568.00;;;5.50
20848;BMP180;10584;50.854;12.902;2024-03-22T02:06:01;98566.00;;;5.60
20848;BMP180;10584;50.854;12.902;2024-03-22T02:11:24;98558.00;;;5.60
20848;BMP180;10584;50.854;12.902;2024-03-22T02:16:46;98540.00;;;5.60
20848;BMP180;10584;50.854;12.902;2024-03-22T02:22:06;98529.00;;;5.70
20848;BMP180;10584;50.854;12.902;2024-03-22T02:27:27;98526.00;;;5.70
20848;BMP180;10584;50.854;12.902;2024-03-22T02:32:48;98522.00;;;5.80
20848;BMP180;10584;50.854;12.902;2024-03-22T02:38:08;98514.00;;;5.80
20848;BMP180;10584;50.854;12.902;2024-03-22T02:43:29;98505.00;;;5.80
20848;BMP180;10584;50.854;12.902;2024-03-22T02:48:50;98502.00;;;5.80
20848;BMP180;10584;50.854;12.902;2024-03-22T02:54:11;98498.00;;;5.90
20848;BMP180;10584;50.854;12.902;2024-03-22T02:59:32;98483.00;;;5.80
20848;BMP180;10584;50.854;12.902;2024-03-22T03:04:52;98484.00;;;5.90
20848;BMP180;10584;50.854;12.902;2024-03-22T03:10:13;98488.00;;;5.90
20848;BMP180;10584;50.854;12.902;2024-03-22T03:15:36;98479.00;;;5.90
20848;BMP180;10584;50.854;12.902;2024-03-22T03:20:57;98475.00;;;5.90
20848;BMP180;10584;50.854;12.902;2024-03-22T03:26:17;98465.00;;;5.80
20848;BMP180;10584;50.854;12.902;2024-03-22T03:31:38;98455.00;;;5.90
20848;BMP180;10584;50.854;12.902;2024-03-22T03:36:59;98450.00;;;5.80
20848;BMP180;10584;50.854;12.902;2024-03-22T03:42:21;98456.00;;;5.90
20848;BMP180;10584;50.854;12.902;2024-03-22T03:47:42;98449.00;;;5.90
20848;BMP180;10584;50.854;12.902;2024-03-22T03:53:04;98445.00;;;5.80
20848;BMP180;10584;50.854;12.902;2024-03-22T03:58:25;98445.00;;;5.90
20848;BMP180;10584;50.854;12.902;2024-03-22T04:03:48;98446.00;;;5.90
20848;BMP180;10584;50.854;12.902;2024-03-22T04:09:08;98452.00;;;5.70
20848;BMP180;10584;50.854;12.902;2024-03-22T04:14:29;98435.00;;;5.80
20848;BMP180;10584;50.854;12.902;2024-03-22T04:19:50;98432.00;;;5.80
20848;BMP180;10584;50.854;12.902;2024-03-22T04:25:12;98426.00;;;5.80
20848;BMP180;10584;50.854;12.902;2024-03-22T04:30:32;98425.00;;;5.80
20848;BMP180;10584;50.854;12.902;2024-03-22T04:35:57;98427.00;;;5.80
20848;BMP180;10584;50.854;12.902;2024-03-22T04:41:18;98427.00;;;5.80
20848;BMP180;10584;50.854;12.902;2024-03-22T04:46:39;98424.00;;;5.80
20848;BMP180;10584;50.854;12.902;2024-03-22T04:52:00;98414.00;;;6.00
20848;BMP180;10584;50.854;12.902;2024-03-22T04:57:21;98419.00;;;6.00
20848;BMP180;10584;50.854;12.902;2024-03-22T05:02:41;98425.00;;;6.00
20848;BMP180;10584;50.854;12.902;2024-03-22T05:08:03;98413.00;;;6.00
20848;BMP180;10584;50.854;12.902;2024-03-22T05:13:24;98397.00;;;6.10
20848;BMP180;10584;50.854;12.902;2024-03-22T05:18:45;98397.00;;;6.20
20848;BMP180;10584;50.854;12.902;2024-03-22T05:24:06;98406.00;;;6.30
20848;BMP180;10584;50.854;12.902;2024-03-22T05:29:26;98402.00;;;6.40
20848;BMP180;10584;50.854;12.902;2024-03-22T05:34:47;98389.00;;;6.40
20848;BMP180;10584;50.854;12.902;2024-03-22T05:40:08;98380.00;;;6.40
20848;BMP180;10584;50.854;12.902;2024-03-22T05:45:29;98366.00;;;6.60
20848;BMP180;10584;50.854;12.902;2024-03-22T05:50:50;98357.00;;;6.50
20848;BMP180;10584;50.854;12.902;2024-03-22T05:56:10;98361.00;;;6.70
20848;BMP180;10584;50.854;12.902;2024-03-22T06:01:32;98356.00;;;6.70
20848;BMP180;10584;50.854;12.902;2024-03-22T06:06:53;98346.00;;;6.70
20848;BMP180;10584;50.854;12.902;2024-03-22T06:12:14;98348.00;;;6.80
20848;BMP180;10584;50.854;12.902;2024-03-22T06:17:34;98349.00;;;6.90
20848;BMP180;10584;50.854;12.902;2024-03-22T06:22:55;98346.00;;;7.00
20848;BMP180;10584;50.854;12.902;2024-03-22T06:28:16;98340.00;;;7.10
20848;BMP180;10584;50.854;12.902;2024-03-22T06:33:36;98332.00;;;7.20
20848;BMP180;10584;50.854;12.902;2024-03-22T06:38:57;98335.00;;;7.30
20848;BMP180;10584;50.854;12.902;2024-03-22T06:44:18;98331.00;;;7.50
20848;BMP180;10584;50.854;12.902;2024-03-22T06:49:38;98328.00;;;7.70
20848;BMP180;10584;50.854;12.902;2024-03-22T06:54:59;98338.00;;;7.80
20848;BMP180;10584;50.854;12.902;2024-03-22T07:00:20;98342.00;;;7.90
20848;BMP180;10584;50.854;12.902;2024-03-22T07:05:41;98338.00;;;8.10
20848;BMP180;10584;50.854;12.902;2024-03-22T07:11:05;98329.00;;;8.10
20848;BMP180;10584;50.854;12.902;2024-03-22T07:16:26;98328.00;;;8.30
20848;BMP180;10584;50.854;12.902;2024-03-22T07:21:50;98331.00;;;8.50
20848;BMP180;10584;50.854;12.902;2024-03-22T07:27:11;98328.00;;;8.80
20848;BMP180;10584;50.854;12.902;2024-03-22T07:32:32;98323.00;;;8.90
20848;BMP180;10584;50.854;12.902;2024-03-22T07:37:52;98323.00;;;9.20
20848;BMP180;10584;50.854;12.902;2024-03-22T07:43:13;98306.00;;;9.40
20848;BMP180;10584;50.854;12.902;2024-03-22T07:48:37;98300.00;;;9.70
20848;BMP180;10584;50.854;12.902;2024-03-22T07:53:57;98295.00;;;9.90
20848;BMP180;10584;50.854;12.902;2024-03-22T07:59:18;98300.00;;;10.10
20848;BMP180;10584;50.854;12.902;2024-03-22T08:04:39;98293.00;;;10.30
20848;BMP180;10584;50.854;12.902;2024-03-22T08:09:59;98299.00;;;10.50
20848;BMP180;10584;50.854;12.902;2024-03-22T08:15:22;98291.00;;;10.70
20848;BMP180;10584;50.854;12.902;2024-03-22T08:20:42;98285.00;;;10.80
20848;BMP180;10584;50.854;12.902;2024-03-22T08:26:03;98280.00;;;10.90
20848;BMP180;10584;50.854;12.902;2024-03-22T08:31:24;98290.00;;;10.80
20848;BMP180;10584;50.854;12.902;2024-03-22T08:36:46;98293.00;;;11.00
20848;BMP180;10584;50.854;12.902;2024-03-22T08:42:06;98288.00;;;11.00
20848;BMP180;10584;50.854;12.902;2024-03-22T08:47:30;98284.00;;;11.10
20848;BMP180;10584;50.854;12.902;2024-03-22T08:52:51;98278.00;;;11.30
20848;BMP180;10584;50.854;12.902;2024-03-22T08:58:13;98274.00;;;11.50
20848;BMP180;10584;50.854;12.902;2024-03-22T09:03:33;98260.00;;;11.70
20848;BMP180;10584;50.854;12.902;2024-03-22T09:08:54;98248.00;;;11.90
20848;BMP180;10584;50.854;12.902;2024-03-22T09:14:18;98258.00;;;12.00
20848;BMP180;10584;50.854;12.902;2024-03-22T09:19:38;98247.00;;;12.20
20848;BMP180;10584;50.854;12.902;2024-03-22T09:24:59;98246.00;;;12.30
20848;BMP180;10584;50.854;12.902;2024-03-22T09:30:19;98248.00;;;12.30
20848;BMP180;10584;50.854;12.902;2024-03-22T09:35:40;98239.00;;;12.50
20848;BMP180;10584;50.854;12.902;2024-03-22T09:41:02;98230.00;;;12.70
20848;BMP180;10584;50.854;12.902;2024-03-22T09:46:22;98229.00;;;12.70
20848;BMP180;10584;50.854;12.902;2024-03-22T09:51:46;98216.00;;;13.00
20848;BMP180;10584;50.854;12.902;2024-03-22T09:57:14;98213.00;;;13.40
20848;BMP180;10584;50.854;12.902;2024-03-22T10:02:38;98216.00;;;13.20
20848;BMP180;10584;50.854;12.902;2024-03-22T10:07:59;98188.00;;;13.50
20848;BMP180;10584;50.854;12.902;2024-03-22T10:13:21;98196.00;;;13.30
20848;BMP180;10584;50.854;12.902;2024-03-22T10:18:42;98199.00;;;13.30
20848;BMP180;10584;50.854;12.902;2024-03-22T10:24:03;98189.00;;;13.10
20848;BMP180;10584;50.854;12.902;2024-03-22T10:29:24;98182.00;;;13.30
20848;BMP180;10584;50.854;12.902;2024-03-22T10:34:46;98182.00;;;13.40
20848;BMP180;10584;50.854;12.902;2024-03-22T10:40:08;98172.00;;;13.60
20848;BMP180;10584;50.854;12.902;2024-03-22T10:45:32;98163.00;;;14.00
20848;BMP180;10584;50.854;12.902;2024-03-22T10:50:54;98163.00;;;14.20
20848;BMP180;10584;50.854;12.902;2024-03-22T10:56:17;98154.00;;;14.30
20848;BMP180;10584;50.854;12.902;2024-03-22T11:01:38;98136.00;;;14.80
20848;BMP180;10584;50.854;12.902;2024-03-22T11:06:59;98128.00;;;15.10
20848;BMP180;10584;50.854;12.902;2024-03-22T11:12:20;98133.00;;;15.10
20848;BMP180;10584;50.854;12.902;2024-03-22T11:17:43;98127.00;;;14.90
20848;BMP180;10584;50.854;12.902;2024-03-22T11:23:04;98118.00;;;14.80
20848;BMP180;10584;50.854;12.902;2024-03-22T11:28:26;98111.00;;;14.80
20848;BMP180;10584;50.854;12.902;2024-03-22T11:33:46;98111.00;;;14.60
20848;BMP180;10584;50.854;12.902;2024-03-22T11:39:07;98095.00;;;14.60
20848;BMP180;10584;50.854;12.902;2024-03-22T11:44:28;98082.00;;;14.70
20848;BMP180;10584;50.854;12.902;2024-03-22T11:49:50;98077.00;;;14.60
20848;BMP180;10584;50.854;12.902;2024-03-22T11:55:11;98070.00;;;14.80
20848;BMP180;10584;50.854;12.902;2024-03-22T12:00:32;98071.00;;;14.80
20848;BMP180;10584;50.854;12.902;2024-03-22T12:05:55;98072.00;;;14.80
20848;BMP180;10584;50.854;12.902;2024-03-22T12:11:18;98058.00;;;14.90
20848;BMP180;10584;50.854;12.902;2024-03-22T12:16:39;98045.00;;;15.00
20848;BMP180;10584;50.854;12.902;2024-03-22T12:22:01;98041.00;;;15.30
20848;BMP180;10584;50.854;12.902;2024-03-22T12:27:23;98035.00;;;15.00
20848;BMP180;10584;50.854;12.902;2024-03-22T12:32:43;98024.00;;;15.00
20848;BMP180;10584;50.854;12.902;2024-03-22T12:38:04;98010.00;;;15.00
20848;BMP180;10584;50.854;12.902;2024-03-22T12:43:25;98012.00;;;15.20
20848;BMP180;10584;50.854;12.902;2024-03-22T12:48:45;98006.00;;;15.30
20848;BMP180;10584;50.854;12.902;2024-03-22T12:54:08;97992.00;;;15.00
20848;BMP180;10584;50.854;12.902;2024-03-22T12:59:29;97991.00;;;14.90
20848;BMP180;10584;50.854;12.902;2024-03-22T13:04:50;97994.00;;;14.50
20848;BMP180;10584;50.854;12.902;2024-03-22T13:10:11;97981.00;;;14.80
20848;BMP180;10584;50.854;12.902;2024-03-22T13:15:32;97979.00;;;14.40
20848;BMP180;10584;50.854;12.902;2024-03-22T13:20:53;97963.00;;;14.30
20848;BMP180;10584;50.854;12.902;2024-03-22T13:26:14;97956.00;;;14.10
20848;BMP180;10584;50.854;12.902;2024-03-22T13:31:35;97954.00;;;14.30
20848;BMP180;10584;50.854;12.902;2024-03-22T13:36:55;97943.00;;;14.20
20848;BMP180;10584;50.854;12.902;2024-03-22T13:42:16;97934.00;;;14.20
20848;BMP180;10584;50.854;12.902;2024-03-22T13:47:37;97921.00;;;14.40
20848;BMP180;10584;50.854;12.902;2024-03-22T13:53:00;97909.00;;;14.40
20848;BMP180;10584;50.854;12.902;2024-03-22T13:58:21;97909.00;;;14.40
20848;BMP180;10584;50.854;12.902;2024-03-22T14:03:42;97908.00;;;14.50
20848;BMP180;10584;50.854;12.902;2024-03-22T14:09:03;97893.00;;;14.50
20848;BMP180;10584;50.854;12.902;2024-03-22T14:14:25;97886.00;;;14.40
20848;BMP180;10584;50.854;12.902;2024-03-22T14:19:45;97875.00;;;14.50
20848;BMP180;10584;50.854;12.902;2024-03-22T14:25:06;97866.00;;;14.70
20848;BMP180;10584;50.854;12.902;2024-03-22T14:30:28;97844.00;;;14.50
20848;BMP180;10584;50.854;12.902;2024-03-22T14:35:50;97851.00;;;14.70
20848;BMP180;10584;50.854;12.902;2024-03-22T14:41:11;97846.00;;;14.70
20848;BMP180;10584;50.854;12.902;2024-03-22T14:46:32;97832.00;;;14.70
20848;BMP180;10584;50.854;12.902;2024-03-22T14:51:53;97837.00;;;14.80
20848;BMP180;10584;50.854;12.902;2024-03-22T14:57:14;97824.00;;;14.80
20848;BMP180;10584;50.854;12.902;2024-03-22T15:02:35;97836.00;;;14.80
20848;BMP180;10584;50.854;12.902;2024-03-22T15:07:56;97821.00;;;14.60
20848;BMP180;10584;50.854;12.902;2024-03-22T15:13:17;97825.00;;;14.70
20848;BMP180;10584;50.854;12.902;2024-03-22T15:18:38;97826.00;;;14.80
20848;BMP180;10584;50.854;12.902;2024-03-22T15:24:00;97833.00;;;14.70
20848;BMP180;10584;50.854;12.902;2024-03-22T15:29:21;97821.00;;;14.90
20848;BMP180;10584;50.854;12.902;2024-03-22T15:34:42;97830.00;;;14.80
20848;BMP180;10584;50.854;12.902;2024-03-22T15:40:04;97827.00;;;14.70
20848;BMP180;10584;50.854;12.902;2024-03-22T15:45:26;97830.00;;;14.70
20848;BMP180;10584;50.854;12.902;2024-03-22T15:50:47;97818.00;;;14.60
20848;BMP180;10584;50.854;12.902;2024-03-22T15:56:08;97811.00;;;14.40
20848;BMP180;10584;50.854;12.902;2024-03-22T16:01:29;97812.00;;;14.40
20848;BMP180;10584;50.854;12.902;2024-03-22T16:06:49;97814.00;;;14.40
20848;BMP180;10584;50.854;12.902;2024-03-22T16:12:11;97804.00;;;14.30
20848;BMP180;10584;50.854;12.902;2024-03-22T16:17:32;97788.00;;;14.20
20848;BMP180;10584;50.854;12.902;2024-03-22T16:22:53;97780.00;;;14.00
20848;BMP180;10584;50.854;12.902;2024-03-22T16:28:14;97782.00;;;14.00
20848;BMP180;10584;50.854;12.902;2024-03-22T16:33:35;97790.00;;;14.10
20848;BMP180;10584;50.854;12.902;2024-03-22T16:38:55;97787.00;;;14.00
20848;BMP180;10584;50.854;12.902;2024-03-22T16:44:16;97771.00;;;14.00
20848;BMP180;10584;50.854;12.902;2024-03-22T16:49:37;97778.00;;;13.90
20848;BMP180;10584;50.854;12.902;2024-03-22T16:55:00;97775.00;;;14.10
20848;BMP180;10584;50.854;12.902;2024-03-22T17:00:21;97776.00;;;14.00
20848;BMP180;10584;50.854;12.902;2024-03-22T17:05:42;97770.00;;;13.90
20848;BMP180;10584;50.854;12.902;2024-03-22T17:11:03;97765.00;;;13.90
20848;BMP180;10584;50.854;12.902;2024-03-22T17:16:24;97754.00;;;14.00
20848;BMP180;10584;50.854;12.902;2024-03-22T17:21:45;97758.00;;;13.70
20848;BMP180;10584;50.854;12.902;2024-03-22T17:27:05;97742.00;;;13.70
20848;BMP180;10584;50.854;12.902;2024-03-22T17:32:26;97746.00;;;13.60
20848;BMP180;10584;50.854;12.902;2024-03-22T17:37:47;97743.00;;;13.60
20848;BMP180;10584;50.854;12.902;2024-03-22T17:43:08;97744.00;;;13.60
20848;BMP180;10584;50.854;12.902;2024-03-22T17:48:30;97736.00;;;13.50
20848;BMP180;10584;50.854;12.902;2024-03-22T17:53:51;97732.00;;;13.50
20848;BMP180;10584;50.854;12.902;2024-03-22T17:59:11;97726.00;;;13.40
20848;BMP180;10584;50.854;12.902;2024-03-22T18:04:32;97733.00;;;13.30
20848;BMP180;10584;50.854;12.902;2024-03-22T18:09:53;97719.00;;;13.30
20848;BMP180;10584;50.854;12.902;2024-03-22T18:15:14;97715.00;;;13.30
20848;BMP180;10584;50.854;12.902;2024-03-22T18:20:35;97712.00;;;13.10
20848;BMP180;10584;50.854;12.902;2024-03-22T18:25:56;97700.00;;;13.10
20848;BMP180;10584;50.854;12.902;2024-03-22T18:31:16;97677.00;;;12.90
20848;BMP180;10584;50.854;12.902;2024-03-22T18:36:38;97667.00;;;12.80
20848;BMP180;10584;50.854;12.902;2024-03-22T18:42:00;97674.00;;;12.80
20848;BMP180;10584;50.854;12.902;2024-03-22T18:47:21;97662.00;;;12.80
20848;BMP180;10584;50.854;12.902;2024-03-22T18:52:42;97643.00;;;12.90
20848;BMP180;10584;50.854;12.902;2024-03-22T18:58:03;97649.00;;;12.90
20848;BMP180;10584;50.854;12.902;2024-03-22T19:03:23;97642.00;;;12.70
20848;BMP180;10584;50.854;12.902;2024-03-22T19:08:44;97638.00;;;12.70
20848;BMP180;10584;50.854;12.902;2024-03-22T19:14:06;97629.00;;;12.60
20848;BMP180;10584;50.854;12.902;2024-03-22T19:19:27;97644.00;;;12.50
20848;BMP180;10584;50.854;12.902;2024-03-22T19:24:47;97646.00;;;12.60
20848;BMP180;10584;50.854;12.902;2024-03-22T19:30:09;97644.00;;;12.60
20848;BMP180;10584;50.854;12.902;2024-03-22T19:35:30;97634.00;;;12.50
20848;BMP180;10584;50.854;12.902;2024-03-22T19:40:50;97628.00;;;12.60
20848;BMP180;10584;50.854;12.902;2024-03-22T19:46:11;97610.00;;;12.50
20848;BMP180;10584;50.854;12.902;2024-03-22T19:51:31;97598.00;;;12.50
20848;BMP180;10584;50.854;12.902;2024-03-22T19:56:52;97603.00;;;12.50
20848;BMP180;10584;50.854;12.902;2024-03-22T20:02:13;97603.00;;;12.50
20848;BMP180;10584;50.854;12.902;2024-03-22T20:07:33;97594.00;;;12.40
20848;BMP180;10584;50.854;12.902;2024-03-22T20:12:55;97592.00;;;12.30
20848;BMP180;10584;50.854;12.902;2024-03-22T20:18:15;97595.00;;;12.30
20848;BMP180;10584;50.854;12.902;2024-03-22T20:23:37;97584.00;;;12.20
20848;BMP180;10584;50.854;12.902;2024-03-22T20:28:58;97587.00;;;12.10
20848;BMP180;10584;50.854;12.902;2024-03-22T20:34:19;97585.00;;;12.20
